Time;durP1;ratioP1;P1;durP2;ratioP2;P2;SDS_P1;SDS_P2;PMS_P1;PMS_P2;Temp;Humidity;BMP_temperature;BMP_pressure;BME280_temperature;BME280_humidity;BME280_pressure;Samples;Min_cycle;Max_cycle;Signal;HPM_P1;HPM_P2
2022/06/08 00:00:16;;;;;;;6.72;3.40;;;13.90;99.90;;;;;;4927830;29;20462;-87
2022/06/08 00:02:44;;;;;;;3.88;3.13;;;13.90;99.90;;;;;;4931034;28;20262;-87
2022/06/08 00:05:10;;;;;;;3.67;3.38;;;13.90;99.90;;;;;;4934447;28;20189;-87
2022/06/08 00:07:36;;;;;;;3.33;2.50;;;;;;;;;;4929656;28;20211;-86
2022/06/08 00:10:04;;;;;;;4.87;2.97;;;13.80;99.90;;;;;;4927553;29;20661;-86
2022/06/08 00:12:29;;;;;;;4.83;2.97;;;;;;;;;;4921583;29;20445;-86
2022/06/08 00:14:56;;;;;;;4.33;2.53;;;;;;;;;;4926686;28;20447;-86
2022/06/08 00:17:22;;;;;;;4.82;2.70;;;;;;;;;;4935426;29;20446;-86
2022/06/08 00:19:48;;;;;;;3.13;2.83;;;;;;;;;;4931321;28;20570;-87
2022/06/08 00:22:14;;;;;;;5.75;2.60;;;;;;;;;;4930691;28;20199;-87
2022/06/08 00:24:40;;;;;;;4.90;2.40;;;;;;;;;;4928163;28;20273;-86
2022/06/08 00:27:06;;;;;;;4.33;2.40;;;;;;;;;;4923663;28;20456;-86
2022/06/08 00:29:32;;;;;;;5.20;2.30;;;;;;;;;;4929477;28;20457;-88
2022/06/08 00:31:58;;;;;;;3.28;2.15;;;;;;;;;;4924715;29;20458;-86
2022/06/08 00:34:24;;;;;;;4.37;2.63;;;13.80;99.90;;;;;;4928719;28;20189;-87
2022/06/08 00:36:50;;;;;;;4.50;2.70;;;;;;;;;;4926196;28;20472;-87
2022/06/08 00:39:15;;;;;;;2.90;2.30;;;13.80;99.90;;;;;;4926758;28;20471;-87
2022/06/08 00:41:46;;;;;;;3.63;2.33;;;13.70;99.90;;;;;;4928811;29;20447;-88
2022/06/08 00:44:38;;;;;;;3.60;2.05;;;13.70;99.90;;;;;;4938230;29;20223;-86
2022/06/08 00:47:07;;;;;;;4.20;2.67;;;13.90;99.90;;;;;;4928985;29;20194;-87
2022/06/08 00:49:54;;;;;;;3.37;2.67;;;13.30;99.90;;;;;;4926231;28;20208;-87
2022/06/08 00:52:21;;;;;;;2.80;2.30;;;13.80;99.90;;;;;;4938962;28;20435;-87
2022/06/08 00:54:51;;;;;;;3.47;2.27;;;13.70;99.90;;;;;;4928724;28;20441;-88
2022/06/08 00:57:24;;;;;;;9.60;2.30;;;13.70;99.90;;;;;;4925369;28;20538;-87
2022/06/08 00:59:55;;;;;;;2.65;2.13;;;13.70;99.90;;;;;;4936074;28;20444;-88
2022/06/08 01:02:21;;;;;;;5.97;2.53;;;13.60;99.90;;;;;;4921703;29;20285;-87
2022/06/08 01:04:47;;;;;;;6.67;3.17;;;;;;;;;;4930318;28;20767;-87
2022/06/08 01:07:19;;;;;;;3.73;2.37;;;13.50;99.90;;;;;;4928283;28;20451;-88
2022/06/08 01:09:45;;;;;;;3.65;2.40;;;;;;;;;;4926975;28;20464;-87
2022/06/08 01:12:15;;;;;;;2.20;2.00;;;13.40;99.90;;;;;;4927035;28;20992;-88
2022/06/08 01:14:41;;;;;;;3.70;2.50;;;;;;;;;;4924113;28;20193;-87
2022/06/08 01:17:07;;;;;;;4.20;2.17;;;;;;;;;;4930430;28;20832;-88
2022/06/08 01:19:35;;;;;;;3.27;2.97;;;13.20;99.90;;;;;;4931235;28;21005;-87
2022/06/08 01:22:03;;;;;;;3.75;2.50;;;13.20;99.90;;;;;;4947886;28;20524;-88
2022/06/08 01:24:29;;;;;;;3.03;2.20;;;13.20;99.90;;;;;;4946831;29;20189;-86
2022/06/08 01:27:02;;;;;;;3.20;2.60;;;13.10;99.90;;;;;;4935896;28;20188;-87
2022/06/08 01:29:31;;;;;;;3.88;2.83;;;13.00;99.90;;;;;;4930795;28;21046;-88
2022/06/08 01:32:25;;;;;;;6.30;2.75;;;13.00;99.90;;;;;;4934536;29;20335;-89
2022/06/08 01:35:26;;;;;;;8.27;2.80;;;13.00;99.90;;;;;;4935488;28;20192;-87
2022/06/08 01:38:27;;;;;;;4.25;2.45;;;13.00;99.90;;;;;;4924593;28;20226;-87
2022/06/08 01:41:47;;;;;;;6.93;2.30;;;13.00;99.90;;;;;;4915373;29;20192;-87
2022/06/08 01:44:41;;;;;;;2.88;2.00;;;13.00;99.90;;;;;;4896092;28;20315;-86
2022/06/08 01:47:53;;;;;;;6.22;2.80;;;13.00;99.90;;;;;;4924688;29;20268;-88
2022/06/08 01:50:25;;;;;;;10.80;3.20;;;13.00;99.90;;;;;;4906486;29;20200;-87
2022/06/08 01:53:03;;;;;;;4.90;2.17;;;13.00;99.90;;;;;;4926544;29;20180;-87
2022/06/08 01:55:44;;;;;;;5.18;2.58;;;12.90;99.90;;;;;;4923451;28;20184;-87
2022/06/08 01:58:33;;;;;;;5.38;2.25;;;12.90;99.90;;;;;;4940503;28;20205;-86
2022/06/08 02:01:07;;;;;;;4.65;2.85;;;12.90;99.90;;;;;;4942586;29;20221;-88
2022/06/08 02:03:47;;;;;;;6.15;2.63;;;12.90;99.90;;;;;;4949445;29;20173;-86
2022/06/08 02:06:13;;;;;;;6.15;2.10;;;;;;;;;;4942334;28;20243;-85
2022/06/08 02:09:02;;;;;;;3.35;2.83;;;12.80;99.90;;;;;;4948457;28;21076;-86
2022/06/08 02:11:41;;;;;;;4.20;2.70;;;12.90;99.90;;;;;;4941069;28;20823;-86
2022/06/08 02:14:19;;;;;;;10.15;2.65;;;12.70;99.90;;;;;;4933301;29;20189;-85
2022/06/08 02:16:53;;;;;;;7.20;2.92;;;12.80;99.90;;;;;;4940934;29;20186;-86
2022/06/08 02:19:48;;;;;;;5.13;2.10;;;12.70;99.90;;;;;;4932931;28;20260;-86
2022/06/08 02:22:19;;;;;;;5.22;2.75;;;12.70;99.90;;;;;;4938536;29;20216;-87
2022/06/08 02:25:06;;;;;;;5.55;2.20;;;12.70;99.90;;;;;;4942750;29;20189;-86
2022/06/08 02:27:37;;;;;;;3.25;2.67;;;12.80;99.90;;;;;;4931429;28;20208;-85
2022/06/08 02:30:16;;;;;;;4.28;2.80;;;12.80;99.90;;;;;;4926275;28;20197;-86
2022/06/08 02:36:32;;;;;;;5.03;3.25;;;12.90;99.90;;;;;;4843636;29;20283;-86
2022/06/08 02:39:07;;;;;;;6.05;2.95;;;13.00;99.90;;;;;;4928194;28;20205;-86
2022/06/08 02:41:36;;;;;;;2.88;2.25;;;13.00;99.90;;;;;;4930491;28;20287;-85
2022/06/08 02:44:06;;;;;;;4.75;2.47;;;13.10;99.90;;;;;;4924355;28;20224;-86
2022/06/08 02:47:02;;;;;;;3.33;1.50;;;13.20;99.90;;;;;;4926664;28;20184;-87
2022/06/08 02:49:28;;;;;;;2.58;2.35;;;;;;;;;;4924062;28;21976;-87
2022/06/08 02:52:00;;;;;;;6.10;2.57;;;13.00;99.90;;;;;;4943701;28;20438;-86
2022/06/08 02:54:27;;;;;;;5.22;2.75;;;13.00;99.90;;;;;;4938421;28;20452;-87
2022/06/08 02:56:53;;;;;;;4.22;2.03;;;;;;;;;;4927691;28;20188;-86
2022/06/08 02:59:40;;;;;;;3.67;2.40;;;13.00;99.90;;;;;;4926685;28;20204;-87
2022/06/08 03:02:23;;;;;;;4.10;2.88;;;13.00;99.90;;;;;;4929795;28;20539;-89
2022/06/08 03:05:08;;;;;;;4.28;1.98;;;13.10;99.90;;;;;;4926607;28;20680;-88
2022/06/08 03:07:45;;;;;;;6.60;2.58;;;13.10;99.90;;;;;;4930459;28;20797;-86
2022/06/08 03:10:14;;;;;;;2.72;2.17;;;13.10;99.90;;;;;;4930949;28;20188;-87
2022/06/08 03:12:45;;;;;;;4.60;2.50;;;13.10;99.90;;;;;;4936494;28;20675;-86
2022/06/08 03:15:16;;;;;;;8.00;2.10;;;13.20;99.90;;;;;;4926690;28;20195;-86
2022/06/08 03:17:47;;;;;;;3.15;2.22;;;;;;;;;;4946234;28;21274;-89
2022/06/08 03:20:13;;;;;;;5.83;2.37;;;13.20;99.90;;;;;;4928623;28;21035;-87
2022/06/08 03:22:39;;;;;;;3.35;2.95;;;;;;;;;;4926832;28;20444;-87
2022/06/08 03:25:05;;;;;;;17.33;2.97;;;13.30;99.90;;;;;;4929292;28;20196;-87
2022/06/08 03:27:31;;;;;;;8.63;3.03;;;;;;;;;;4925596;28;20240;-88
2022/06/08 03:29:57;;;;;;;6.37;2.43;;;;;;;;;;4930515;28;20435;-90
2022/06/08 03:32:23;;;;;;;6.80;2.57;;;;;;;;;;4926911;28;20436;-90
2022/06/08 03:34:49;;;;;;;6.53;2.53;;;;;;;;;;4933643;28;20543;-88
2022/06/08 03:37:15;;;;;;;1.70;1.60;;;;;;;;;;4935313;28;20729;-90
2022/06/08 03:39:41;;;;;;;9.30;2.97;;;;;;;;;;4926755;28;20467;-90
2022/06/08 03:42:07;;;;;;;4.37;2.63;;;13.20;99.90;;;;;;4926893;28;20466;-90
2022/06/08 03:44:33;;;;;;;3.50;2.83;;;;;;;;;;4930228;28;20480;-90
2022/06/08 03:47:07;;;;;;;7.40;3.07;;;13.30;99.90;;;;;;4935882;28;20196;-89
2022/06/08 03:49:34;;;;;;;4.73;2.63;;;13.50;99.90;;;;;;4935933;28;21003;-89
2022/06/08 03:52:04;;;;;;;2.60;2.40;;;13.70;99.90;;;;;;4934099;28;20467;-89
2022/06/08 03:54:36;;;;;;;3.93;1.97;;;14.00;99.90;;;;;;4933942;28;20439;-89
2022/06/08 03:57:04;;;;;;;4.33;2.30;;;14.20;99.90;;;;;;4928795;28;20444;-90
2022/06/08 03:59:32;;;;;;;5.60;2.40;;;14.50;99.90;;;;;;4927911;28;20612;-89
2022/06/08 04:01:58;;;;;;;4.97;2.40;;;;;;;;;;4946212;28;20440;-89
2022/06/08 04:04:24;;;;;;;7.53;2.97;;;;;;;;;;4928192;28;20453;-89
2022/06/08 04:06:50;;;;;;;5.30;2.40;;;;;;;;;;4925958;28;20552;-90
2022/06/08 04:09:17;;;;;;;4.13;1.90;;;;;;;;;;4921636;28;20480;-89
2022/06/08 04:11:42;;;;;;;7.00;2.47;;;15.60;99.90;;;;;;4959096;23;20501;-83
2022/06/08 04:14:08;;;;;;;3.23;2.10;;;16.00;99.90;;;;;;4924588;29;20446;-84
2022/06/08 04:16:35;;;;;;;3.00;1.80;;;;;;;;;;4942967;28;20186;-85
2022/06/08 04:19:00;;;;;;;2.43;2.00;;;19.90;99.90;;;;;;4926952;29;20189;-85
2022/06/08 04:21:26;;;;;;;3.40;1.97;;;;;;;;;;4925538;29;20464;-85
2022/06/08 04:23:53;;;;;;;5.10;2.37;;;;;;;;;;4930429;29;21773;-85
2022/06/08 04:26:20;;;;;;;5.87;2.37;;;22.60;99.90;;;;;;4928765;29;20466;-83
2022/06/08 04:28:46;;;;;;;36.10;3.30;;;;;;;;;;4928399;29;21235;-84
2022/06/08 04:31:12;;;;;;;5.10;2.33;;;;;;;;;;4923931;29;20469;-83
2022/06/08 04:33:38;;;;;;;6.23;2.10;;;;;;;;;;4926254;29;20445;-82
2022/06/08 04:36:05;;;;;;;5.30;2.13;;;;;;;;;;4926239;29;20444;-83
2022/06/08 04:38:31;;;;;;;3.70;1.70;;;25.10;99.90;;;;;;4931073;29;20445;-85
2022/06/08 04:40:57;;;;;;;9.13;2.40;;;;;;;;;;4928925;29;20464;-85
2022/06/08 04:43:23;;;;;;;6.90;2.70;;;;;;;;;;4925374;29;20449;-85
2022/06/08 04:45:49;;;;;;;6.30;2.73;;;;;;;;;;4923354;29;20446;-84
2022/06/08 04:48:15;;;;;;;5.33;2.30;;;;;;;;;;4935530;28;20520;-82
2022/06/08 04:50:41;;;;;;;3.40;2.43;;;;;;;;;;4922297;29;20445;-83
2022/06/08 04:53:07;;;;;;;3.20;2.10;;;;;;;;;;4931375;28;20437;-88
2022/06/08 04:55:33;;;;;;;2.40;1.93;;;;;;;;;;4918980;29;20438;-84
2022/06/08 04:58:01;;;;;;;3.70;2.27;;;;;;;;;;4919488;29;20460;-85
2022/06/08 05:00:27;;;;;;;4.57;2.30;;;20.70;99.90;;;;;;4916888;29;20461;-85
2022/06/08 05:02:54;;;;;;;3.37;1.63;;;21.40;99.90;;;;;;4920233;29;20441;-83
2022/06/08 05:05:27;;;;;;;4.00;1.70;;;22.30;99.90;;;;;;4915271;29;20445;-83
2022/06/08 05:07:53;;;;;;;2.63;2.20;;;23.50;99.90;;;;;;4920910;29;20519;-84
2022/06/08 05:10:21;;;;;;;4.30;2.27;;;25.10;99.90;;;;;;4925372;29;20461;-83
2022/06/08 05:12:47;;;;;;;6.30;1.93;;;;;;;;;;4925710;29;20436;-84
2022/06/08 05:15:20;;;;;;;2.87;1.77;;;28.40;99.90;;;;;;4927286;29;20446;-84
2022/06/08 05:17:45;;;;;;;4.23;1.80;;;;;;;;;;4921980;29;20787;-84
2022/06/08 05:20:13;;;;;;;2.17;1.73;;;31.50;97.10;;;;;;4926197;29;20460;-86
2022/06/08 05:22:39;;;;;;;6.20;1.53;;;;;;;;;;4924723;29;21318;-84
2022/06/08 05:25:06;;;;;;;2.57;1.17;;;34.50;82.30;;;;;;4923746;29;20448;-85
2022/06/08 05:27:32;;;;;;;5.50;1.87;;;;;;;;;;4927226;29;21060;-85
2022/06/08 05:29:58;;;;;;;2.60;1.90;;;;;;;;;;4941785;28;20468;-82
2022/06/08 05:32:24;;;;;;;3.23;3.03;;;;;;;;;;4925659;29;20441;-80
2022/06/08 05:34:50;;;;;;;4.30;3.90;;;;;;;;;;4928005;29;20518;-85
2022/06/08 05:37:16;;;;;;;6.20;5.90;;;;;;;;;;4925395;29;20472;-84
2022/06/08 05:39:42;;;;;;;8.77;8.17;;;;;;;;;;4925463;29;20453;-86
2022/06/08 05:42:08;;;;;;;9.20;8.70;;;;;;;;;;4924742;29;20434;-84
2022/06/08 05:44:35;;;;;;;8.80;8.23;;;;;;;;;;4939844;28;20513;-84
2022/06/08 05:47:02;;;;;;;9.10;8.40;;;;;;;;;;4926199;29;20438;-84
2022/06/08 05:49:28;;;;;;;10.73;9.90;;;;;;;;;;4927413;29;20507;-85
2022/06/08 05:51:54;;;;;;;9.77;9.17;;;;;;;;;;4929347;29;20555;-84
2022/06/08 05:54:20;;;;;;;9.60;8.90;;;;;;;;;;4922918;29;20434;-84
2022/06/08 05:56:46;;;;;;;9.40;9.00;;;;;;;;;;4924485;29;20453;-83
2022/06/08 05:59:12;;;;;;;10.37;9.97;;;;;;;;;;4942060;28;20440;-85
2022/06/08 06:01:38;;;;;;;10.87;10.37;;;;;;;;;;4923410;29;20471;-81
2022/06/08 06:04:07;;;;;;;11.00;10.57;;;;;;;;;;4926771;29;21340;-83
2022/06/08 06:06:33;;;;;;;8.90;8.50;;;;;;;;;;4924705;29;20427;-84
2022/06/08 06:08:59;;;;;;;10.10;9.20;;;;;;;;;;4932473;29;20550;-83
2022/06/08 06:11:25;;;;;;;8.87;8.47;;;;;;;;;;4925348;29;20556;-86
2022/06/08 06:13:51;;;;;;;12.53;11.73;;;;;;;;;;4927529;29;20482;-86
2022/06/08 06:16:17;;;;;;;11.13;10.43;;;;;;;;;;4926828;29;20448;-84
2022/06/08 06:18:43;;;;;;;11.60;10.70;;;;;;;;;;4923703;29;20474;-84
2022/06/08 06:21:15;;;;;;;11.90;11.30;;;39.20;45.90;;;;;;4926678;29;20459;-85
2022/06/08 06:23:41;;;;;;;11.90;11.10;;;;;;;;;;4931122;29;20570;-84
2022/06/08 06:26:07;;;;;;;13.40;12.80;;;;;;;;;;4930232;29;20589;-85
2022/06/08 06:28:33;;;;;;;13.00;11.90;;;;;;;;;;4925782;29;20479;-85
2022/06/08 06:31:00;;;;;;;11.10;10.70;;;;;;;;;;4930961;29;20901;-84
2022/06/08 06:33:25;;;;;;;11.60;10.97;;;;;;;;;;4925569;29;20441;-83
2022/06/08 06:35:51;;;;;;;12.27;11.53;;;;;;;;;;4931436;29;20441;-84
2022/06/08 06:38:17;;;;;;;13.37;12.27;;;;;;;;;;4930560;29;20520;-86
2022/06/08 06:40:43;;;;;;;13.87;13.10;;;43.10;40.10;;;;;;4927049;29;20300;-84
2022/06/08 06:43:11;;;;;;;13.80;13.20;;;40.90;38.80;;;;;;4923610;29;20556;-85
2022/06/08 06:45:37;;;;;;;13.63;12.90;;;;;;;;;;4927115;29;20190;-84
2022/06/08 06:48:03;;;;;;;13.53;12.83;;;;;;;;;;4922847;29;20464;-84
2022/06/08 06:50:29;;;;;;;12.90;12.00;;;;;;;;;;4924147;29;21387;-85
2022/06/08 06:52:55;;;;;;;14.57;13.80;;;;;;;;;;4925815;29;20462;-81
2022/06/08 06:55:27;;;;;;;11.50;10.87;;;33.50;47.40;;;;;;4924356;29;21362;-83
2022/06/08 06:57:59;;;;;;;10.30;9.40;;;;;;;;;;4923619;29;20438;-84
2022/06/08 07:00:25;;;;;;;7.87;7.30;;;30.60;54.90;;;;;;4926658;29;20461;-85
2022/06/08 07:02:51;;;;;;;9.43;7.17;;;;;;;;;;4927652;29;20998;-84
2022/06/08 07:05:21;;;;;;;7.70;6.30;;;29.90;55.80;;;;;;4928351;29;20434;-83
2022/06/08 07:07:47;;;;;;;5.77;5.30;;;;;;;;;;4924181;29;20456;-84
2022/06/08 07:10:13;;;;;;;5.83;5.53;;;;;;;;;;4926509;29;21087;-84
2022/06/08 07:12:39;;;;;;;7.57;7.00;;;;;;;;;;4923271;29;20442;-81
2022/06/08 07:15:06;;;;;;;9.17;8.67;;;;;;;;;;4923650;29;20423;-86
2022/06/08 07:17:31;;;;;;;8.30;7.90;;;;;;;;;;4923660;29;20454;-83
2022/06/08 07:19:57;;;;;;;9.73;9.03;;;;;;;;;;4927058;29;20622;-82
2022/06/08 07:22:23;;;;;;;9.70;9.10;;;;;;;;;;4929146;29;20874;-84
2022/06/08 07:24:49;;;;;;;9.20;8.70;;;;;;;;;;4931785;29;20437;-85
2022/06/08 07:27:16;;;;;;;10.30;9.60;;;;;;;;;;4926677;29;20451;-83
2022/06/08 07:29:42;;;;;;;10.90;10.30;;;;;;;;;;4930973;29;20487;-83
2022/06/08 07:32:09;;;;;;;11.53;10.93;;;;;;;;;;4930785;29;20440;-83
2022/06/08 07:34:35;;;;;;;11.60;10.90;;;;;;;;;;4933151;29;20436;-84
2022/06/08 07:37:01;;;;;;;12.27;11.67;;;;;;;;;;4930240;29;20912;-84
2022/06/08 07:39:27;;;;;;;12.23;11.57;;;;;;;;;;4926056;29;20972;-84
2022/06/08 07:41:53;;;;;;;11.77;11.23;;;;;;;;;;4927638;29;20547;-83
2022/06/08 07:44:20;;;;;;;12.17;11.50;;;37.60;43.50;;;;;;4926591;29;20460;-86
2022/06/08 07:46:46;;;;;;;12.37;11.67;;;38.10;41.60;;;;;;4926063;29;20456;-84
2022/06/08 07:51:59;;;;;;;14.20;13.30;;;;;;;;;;4927106;29;20503;-86
2022/06/08 07:54:26;;;;;;;12.70;12.00;;;35.80;41.50;;;;;;4929120;29;20533;-85
2022/06/08 07:56:53;;;;;;;12.53;11.80;;;35.80;48.00;;;;;;4928889;29;20438;-83
2022/06/08 07:59:24;;;;;;;14.43;12.10;;;35.80;42.70;;;;;;4933669;29;20450;-84
2022/06/08 08:01:50;;;;;;;13.67;12.63;;;;;;;;;;4929003;29;20459;-84
2022/06/08 08:04:16;;;;;;;12.40;11.50;;;;;;;;;;4927131;29;20446;-81
2022/06/08 08:06:43;;;;;;;10.87;10.37;;;;;;;;;;4923612;29;20491;-84
2022/06/08 08:09:15;;;;;;;12.80;11.50;;;35.30;45.80;;;;;;4926368;29;20822;-85
2022/06/08 08:11:41;;;;;;;11.73;11.17;;;36.90;43.00;;;;;;4928949;29;20479;-84
2022/06/08 08:14:07;;;;;;;12.40;11.43;;;;;;;;;;4927400;29;20935;-84
2022/06/08 08:16:33;;;;;;;12.60;11.70;;;;;;;;;;4925359;29;21045;-83
2022/06/08 08:18:59;;;;;;;12.10;11.50;;;37.30;45.60;;;;;;4917059;29;20438;-84
2022/06/08 08:21:25;;;;;;;11.90;11.17;;;;;;;;;;4933775;29;20466;-84
2022/06/08 08:23:51;;;;;;;13.00;12.13;;;;;;;;;;4927666;29;20196;-86
2022/06/08 08:26:17;;;;;;;14.03;12.67;;;35.90;43.30;;;;;;4924394;29;20457;-85
2022/06/08 08:28:43;;;;;;;12.17;11.10;;;;;;;;;;4924754;29;20495;-84
2022/06/08 08:31:09;;;;;;;14.20;13.30;;;;;;;;;;4924097;29;21462;-85
2022/06/08 08:33:35;;;;;;;12.37;11.67;;;;;;;;;;4925696;29;20447;-86
2022/06/08 08:36:01;;;;;;;11.70;10.93;;;;;;;;;;4922285;29;20435;-86
2022/06/08 08:38:27;;;;;;;12.23;11.10;;;;;;;;;;4924596;29;20501;-84
2022/06/08 08:40:56;;;;;;;13.10;11.87;;;33.10;45.60;;;;;;4925034;29;20474;-85
2022/06/08 08:43:25;;;;;;;10.30;9.70;;;30.90;46.40;;;;;;4936383;29;20436;-84
2022/06/08 08:46:34;;;;;;;9.83;9.07;;;31.50;59.40;;;;;;4926961;29;20829;-86
2022/06/08 08:49:00;;;;;;;9.63;8.77;;;;;;;;;;4925978;29;21021;-84
2022/06/08 08:51:42;;;;;;;9.10;8.40;;;31.30;53.90;;;;;;4926155;29;20459;-86
2022/06/08 08:54:28;;;;;;;8.70;7.90;;;30.50;50.70;;;;;;4925154;29;20199;-82
2022/06/08 08:57:14;;;;;;;8.20;7.40;;;30.30;50.10;;;;;;4921160;29;21246;-85
2022/06/08 08:59:45;;;;;;;6.97;6.20;;;28.30;55.70;;;;;;4922732;29;20459;-85
2022/06/08 09:05:18;;;;;;;8.07;7.30;;;27.20;55.20;;;;;;4926300;29;20541;-86
2022/06/08 09:07:44;;;;;;;6.90;6.00;;;32.00;54.30;;;;;;4924909;29;20618;-83
2022/06/08 09:10:22;;;;;;;6.17;5.77;;;32.60;48.10;;;;;;4924273;29;20463;-84
2022/06/08 09:12:48;;;;;;;9.83;6.87;;;33.80;56.50;;;;;;4925833;29;20845;-85
2022/06/08 09:15:17;;;;;;;12.13;7.40;;;33.50;46.50;;;;;;4924779;29;20441;-84
2022/06/08 09:17:56;;;;;;;8.07;7.37;;;31.10;55.30;;;;;;4926834;29;20438;-85
2022/06/08 09:20:31;;;;;;;8.27;6.87;;;30.00;51.20;;;;;;4925824;29;20506;-84
2022/06/08 09:23:02;;;;;;;7.50;6.80;;;29.70;49.40;;;;;;4925516;29;20462;-85
2022/06/08 09:25:34;;;;;;;5.67;5.20;;;27.30;51.90;;;;;;4924177;29;21066;-84
2022/06/08 09:28:01;;;;;;;5.80;4.23;;;;;;;;;;4943360;29;20458;-83
2022/06/08 09:30:48;;;;;;;6.50;3.07;;;25.60;55.70;;;;;;4928122;29;20462;-85
2022/06/08 09:33:17;;;;;;;3.73;3.33;;;25.20;56.30;;;;;;4926599;29;20518;-83
2022/06/08 09:35:59;;;;;;;4.83;2.60;;;25.00;58.50;;;;;;4924100;29;20480;-85
2022/06/08 09:38:28;;;;;;;5.73;2.90;;;25.30;61.20;;;;;;4925289;29;20440;-83
2022/06/08 09:41:20;;;;;;;2.40;1.93;;;25.90;58.70;;;;;;4925214;29;20549;-81
2022/06/08 09:44:08;;;;;;;2.87;2.37;;;25.80;58.30;;;;;;4927114;29;20444;-80
2022/06/08 09:52:53;;;;;;;3.90;1.63;;;24.90;59.20;;;;;;4925443;29;20500;-81
2022/06/08 09:55:53;;;;;;;3.50;1.77;;;24.30;61.40;;;;;;4922995;29;20436;-81
2022/06/08 09:58:21;;;;;;;3.40;1.80;;;24.10;61.90;;;;;;4920261;29;21033;-80
2022/06/08 10:00:54;;;;;;;3.70;1.60;;;24.00;63.90;;;;;;4926833;29;20479;-83
2022/06/08 10:03:44;;;;;;;3.37;1.80;;;23.70;67.60;;;;;;4920577;29;20456;-83
2022/06/08 10:06:29;;;;;;;4.50;1.53;;;23.40;66.40;;;;;;4924382;29;20437;-86
2022/06/08 10:09:21;;;;;;;6.30;1.63;;;22.90;67.10;;;;;;4924301;29;20499;-81
2022/06/08 10:11:56;;;;;;;5.47;1.50;;;22.80;71.00;;;;;;4926138;29;20478;-81
2022/06/08 10:15:03;;;;;;;5.70;2.00;;;22.60;73.40;;;;;;4931844;29;20440;-82
2022/06/08 10:17:37;;;;;;;3.73;1.40;;;22.40;71.60;;;;;;4922209;29;20448;-84
2022/06/08 10:20:12;;;;;;;5.20;2.23;;;22.70;73.00;;;;;;4920509;29;20460;-83
2022/06/08 10:22:45;;;;;;;3.23;1.60;;;23.20;76.80;;;;;;4924289;29;20428;-82
2022/06/08 10:25:26;;;;;;;3.67;1.50;;;24.40;80.40;;;;;;4923284;29;20473;-83
2022/06/08 10:27:59;;;;;;;4.93;1.60;;;28.30;60.80;;;;;;4917958;29;20476;-83
2022/06/08 10:30:33;;;;;;;3.23;1.87;;;28.30;67.50;;;;;;4924893;29;20456;-85
2022/06/08 10:33:19;;;;;;;4.43;2.40;;;28.30;55.90;;;;;;4923929;29;20858;-83
2022/06/08 10:35:49;;;;;;;6.47;2.27;;;28.40;62.10;;;;;;4923675;29;20475;-81
2022/06/08 10:38:28;;;;;;;2.23;2.03;;;28.00;64.10;;;;;;4923211;29;20449;-85
2022/06/08 10:41:00;;;;;;;4.37;2.40;;;27.50;64.70;;;;;;4944195;28;20468;-84
2022/06/08 10:43:29;;;;;;;5.23;2.00;;;26.80;61.30;;;;;;4922422;29;21019;-82
2022/06/08 10:46:00;;;;;;;3.70;2.00;;;27.10;69.00;;;;;;4924611;29;20445;-82
2022/06/08 10:48:35;;;;;;;2.30;2.10;;;27.00;59.50;;;;;;4923229;29;20929;-82
2022/06/08 10:51:10;;;;;;;6.03;2.10;;;26.70;59.60;;;;;;4928699;29;20877;-82
2022/06/08 10:56:28;;;;;;;2.27;1.90;;;25.90;61.80;;;;;;4928556;29;20576;-84
2022/06/08 10:59:08;;;;;;;8.03;2.23;;;25.80;68.00;;;;;;4923226;29;20448;-84
2022/06/08 11:01:55;;;;;;;3.27;1.90;;;26.00;63.00;;;;;;4922107;29;20916;-84
2022/06/08 11:04:28;;;;;;;2.93;2.30;;;26.30;68.50;;;;;;4931128;28;20449;-81
2022/06/08 11:06:54;;;;;;;6.27;2.13;;;;;;;;;;4919654;29;20487;-82
2022/06/08 11:09:42;;;;;;;4.50;1.93;;;26.80;63.60;;;;;;4923376;29;20491;-84
2022/06/08 11:12:11;;;;;;;3.43;1.90;;;27.30;71.10;;;;;;4921411;29;20453;-85
2022/06/08 11:14:48;;;;;;;4.53;2.00;;;28.10;73.50;;;;;;4917823;29;20438;-85
2022/06/08 11:17:22;;;;;;;3.00;1.90;;;28.90;60.40;;;;;;4921246;29;20476;-86
2022/06/08 11:19:50;;;;;;;2.97;2.70;;;28.50;71.30;;;;;;4921491;29;20463;-84
2022/06/08 11:22:23;;;;;;;3.07;2.50;;;28.10;58.60;;;;;;4925683;29;20436;-86
2022/06/08 11:24:54;;;;;;;5.50;2.57;;;27.90;55.30;;;;;;4920157;29;20440;-85
2022/06/08 11:27:30;;;;;;;4.27;2.50;;;28.30;57.00;;;;;;4924903;29;20846;-85
2022/06/08 11:30:14;;;;;;;6.00;2.90;;;28.50;57.20;;;;;;4922708;29;21020;-84
2022/06/08 11:33:11;;;;;;;3.67;2.60;;;28.00;57.10;;;;;;4925039;29;20441;-87
2022/06/08 11:36:06;;;;;;;6.60;2.50;;;27.30;60.40;;;;;;4925549;29;20457;-84
2022/06/08 11:38:52;;;;;;;5.23;2.40;;;26.80;66.90;;;;;;4926260;29;20464;-83
2022/06/08 11:41:21;;;;;;;3.37;2.10;;;26.30;67.00;;;;;;4924660;29;20479;-84
2022/06/08 11:43:48;;;;;;;2.47;1.80;;;26.50;61.40;;;;;;4924302;29;20441;-83
2022/06/08 11:46:28;;;;;;;5.43;2.43;;;27.30;58.60;;;;;;4945593;28;20444;-83
2022/06/08 11:48:55;;;;;;;8.40;2.30;;;;;;;;;;4925637;29;20468;-83
2022/06/08 11:51:36;;;;;;;3.40;2.13;;;28.00;61.70;;;;;;4919744;29;20457;-84
2022/06/08 11:54:22;;;;;;;4.27;2.10;;;28.00;57.90;;;;;;4926215;29;20517;-85
2022/06/08 11:57:03;;;;;;;5.53;2.40;;;27.30;54.80;;;;;;4923293;29;20472;-84
2022/06/08 11:59:33;;;;;;;3.63;2.17;;;26.50;55.40;;;;;;4921513;29;20439;-85
2022/06/08 12:02:01;;;;;;;2.60;1.73;;;26.40;55.10;;;;;;4911584;29;20458;-83
2022/06/08 12:04:30;;;;;;;3.50;2.17;;;26.70;61.40;;;;;;4914000;29;20454;-83
2022/06/08 12:06:58;;;;;;;4.70;1.73;;;26.50;62.70;;;;;;4919622;29;21393;-84
2022/06/08 12:09:31;;;;;;;3.13;2.17;;;26.60;54.80;;;;;;4917753;29;20487;-84
2022/06/08 12:12:11;;;;;;;2.13;1.93;;;25.90;58.80;;;;;;4917572;29;20818;-83
2022/06/08 12:14:38;;;;;;;5.40;2.33;;;25.70;60.60;;;;;;4917048;29;20436;-83
2022/06/08 12:17:14;;;;;;;1.63;1.53;;;26.90;63.50;;;;;;4917045;29;20518;-85
2022/06/08 12:19:47;;;;;;;4.87;2.30;;;27.00;57.70;;;;;;4922743;29;20474;-85
2022/06/08 12:22:20;;;;;;;4.60;2.33;;;26.50;54.10;;;;;;4921851;29;20487;-85
2022/06/08 12:25:07;;;;;;;3.33;2.13;;;27.20;57.70;;;;;;4922881;29;22156;-84
2022/06/08 12:27:46;;;;;;;5.87;2.00;;;25.80;57.40;;;;;;4921158;29;20444;-82
2022/06/08 12:30:29;;;;;;;2.90;2.17;;;25.50;57.50;;;;;;4922431;29;20622;-84
2022/06/08 12:33:19;;;;;;;4.17;2.17;;;25.60;59.20;;;;;;4921671;29;20537;-84
2022/06/08 12:36:09;;;;;;;3.97;2.23;;;25.80;60.80;;;;;;4942405;28;20808;-85
2022/06/08 12:38:37;;;;;;;4.40;2.27;;;25.80;63.70;;;;;;4922158;29;20438;-85
2022/06/08 12:41:10;;;;;;;4.47;2.17;;;25.60;68.20;;;;;;4920143;29;20789;-84
2022/06/08 12:43:50;;;;;;;4.03;1.80;;;25.80;63.00;;;;;;4921163;29;20539;-85
2022/06/08 12:46:23;;;;;;;2.73;2.27;;;26.40;60.70;;;;;;4911783;29;20569;-83
2022/06/08 12:48:59;;;;;;;3.80;1.67;;;26.10;61.90;;;;;;4918112;29;20460;-85
2022/06/08 12:51:42;;;;;;;5.10;1.97;;;26.10;66.90;;;;;;4916479;29;20469;-85
2022/06/08 12:54:27;;;;;;;3.63;1.80;;;25.60;62.30;;;;;;4942516;28;20563;-83
2022/06/08 12:56:56;;;;;;;2.47;1.50;;;26.00;63.60;;;;;;4930084;29;20480;-84
2022/06/08 12:59:22;;;;;;;2.93;1.70;;;;;;;;;;4921625;29;20479;-84
2022/06/08 13:01:48;;;;;;;4.27;2.40;;;;;;;;;;4926354;29;21302;-83
2022/06/08 13:04:21;;;;;;;5.87;2.03;;;27.50;60.50;;;;;;4926654;29;20429;-86
2022/06/08 13:06:47;;;;;;;7.93;2.17;;;;;;;;;;4921608;29;20484;-85
2022/06/08 13:09:16;;;;;;;4.00;2.20;;;27.80;57.10;;;;;;4919657;29;20893;-85
2022/06/08 13:11:44;;;;;;;2.40;1.83;;;27.80;59.30;;;;;;4928169;29;21020;-85
2022/06/08 13:14:15;;;;;;;6.70;2.40;;;27.80;64.60;;;;;;4918372;29;20820;-84
2022/06/08 13:16:41;;;;;;;5.87;2.40;;;28.60;62.70;;;;;;4923290;29;20940;-83
2022/06/08 13:19:12;;;;;;;3.97;3.20;;;28.90;55.60;;;;;;4923690;29;20442;-84
2022/06/08 13:21:38;;;;;;;3.00;2.70;;;;;;;;;;4934464;28;20215;-83
2022/06/08 13:24:04;;;;;;;5.37;3.67;;;;;;;;;;4926683;29;20446;-84
2022/06/08 13:26:34;;;;;;;4.23;3.20;;;29.40;53.60;;;;;;4917657;29;20463;-85
2022/06/08 13:29:00;;;;;;;3.27;3.07;;;;;;;;;;4915505;29;20568;-82
2022/06/08 13:31:26;;;;;;;3.00;2.80;;;;;;;;;;4922615;29;20463;-84
2022/06/08 13:33:56;;;;;;;5.93;3.50;;;28.80;55.40;;;;;;4920911;29;20462;-84
2022/06/08 13:36:54;;;;;;;2.90;2.70;;;28.00;69.60;;;;;;4918262;29;20448;-86
2022/06/08 13:39:30;;;;;;;5.73;2.80;;;28.30;58.30;;;;;;4922109;29;20433;-84
2022/06/08 13:42:16;;;;;;;2.63;2.43;;;29.10;58.90;;;;;;4925810;29;20464;-85
2022/06/08 13:44:46;;;;;;;6.73;3.67;;;29.00;58.60;;;;;;4921369;29;20444;-83
2022/06/08 13:47:19;;;;;;;3.07;2.77;;;27.70;59.00;;;;;;4921656;29;20457;-86
2022/06/08 13:49:50;;;;;;;7.37;2.50;;;28.50;65.30;;;;;;4921028;29;20769;-82
2022/06/08 13:52:19;;;;;;;7.60;3.20;;;28.70;54.00;;;;;;4922453;29;20442;-82
2022/06/08 13:54:52;;;;;;;7.33;3.63;;;28.70;51.20;;;;;;4923756;29;20469;-85
2022/06/08 13:57:18;;;;;;;6.60;3.40;;;;;;;;;;4932162;29;20485;-83
2022/06/08 13:59:44;;;;;;;7.33;3.80;;;;;;;;;;4923772;29;20437;-82
2022/06/08 14:02:38;;;;;;;5.47;3.50;;;28.30;55.90;;;;;;4924084;29;20451;-84
2022/06/08 14:05:05;;;;;;;3.80;2.70;;;28.60;65.70;;;;;;4905385;29;20706;-85
2022/06/08 14:12:59;;;;;;;4.33;2.90;;;28.30;56.00;;;;;;4921508;29;20813;-83